Weather observations for the past three days for
Presidio Lely International Airport
Metric (Imperial)
Date Time (cdt) Wind (kph) Vis. (km) Weather Sky Cond. Temperature (ºC) Relative Humidity Wind Chill (°C) Heat Index (°C) Pressure Precipitation (cm)
Air Dwpt 6 hour altimeter (cm) sea level (mb) 1 hr 3 hr 6 hr
Max. Min.
06 03:15 N 9 16.09 Fair CLR 24 -0.5 20% 24 75.9 0.0
06 02:55 NW 13 16.09 Fair CLR 24.9 0 19% 25 75.9 0.0
06 02:35 NW 13 16.09 Fair CLR 24.6 -0.6 19% 25 75.92 0.0
06 02:15 NW 7 16.09 Fair CLR 24.7 -0.9 18% 25 75.92 0.0
06 01:55 N 11 16.09 Fair CLR 23.9 -1.3 19% 24 75.9 0.0
06 01:35 NW 7 16.09 Fair CLR 24.8 -1 18% 25 75.9 0.0
06 01:15 N 7 16.09 Fair CLR 25.8 -1.5 16% 25 75.9 0.0
06 00:55 N 7 16.09 Fair CLR 25.5 -1.3 33.2 25 17% 25 75.87 0.0
06 00:35 Calm 16.09 Fair CLR 25.4 -1 18% 25 75.87 0.0
06 00:15 W 9 16.09 Fair CLR 26.8 -1.2 16% 26 75.87 0.0
05 23:55 W 6 16.09 Fair CLR 26.8 -1.2 16% 26 75.84 0.0
05 23:35 W 6 16.09 Fair CLR 27.1 -0.9 16% 26 75.84 0.0
05 23:15 Calm 16.09 Fair CLR 28 -1.2 15% 27 75.82 0.0
05 22:55 NW 6 16.09 Fair CLR 28.1 -1.2 15% 27 75.82 0.0
05 22:35 NW 7 16.09 Fair CLR 28.6 -1.3 14% 27 75.77 0.0
05 22:15 W 9 16.09 Fair CLR 28.9 -1.3 14% 27 75.74 0.0
05 21:35 NW 6 16.09 Fair CLR 29.8 -1.7 13% 28 75.72 0.0
05 21:15 NW 13 16.09 Fair CLR 30.1 -1.5 13% 28 75.69 0.0
05 20:55 NW 19 G 31 16.09 Fair CLR 30.3 -1.5 13% 28 75.69 0.0
05 20:35 NW 20 16.09 Fair CLR 30.5 -1.5 12% 29 75.64 0.0
05 20:15 NW 24 G 33 16.09 Fair CLR 31 -2.3 11% 29 75.62 0.0
05 19:55 NW 30 G 37 16.09 Fair CLR 31.2 -2.3 11% 29 75.62 0.0
05 19:35 NW 31 G 44 16.09 Fair CLR 31.8 -2 11% 30 75.59 0.0
05 19:15 W 26 G 33 16.09 Fair CLR 32.9 -2.5 10% 31 75.59 0.0
05 18:55 NW 15 G 26 16.09 Fair CLR 33.1 -1.7 35.1 29.3 11% 31 75.57 0.0
05 18:35 W 15 16.09 Fair CLR 33.5 -1.7 10% 31 75.57 0.0
05 18:15 NW 17 G 33 16.09 Fair CLR 33.7 -0.9 11% 31 75.57 0.0
05 17:55 W 11 16.09 Fair CLR 33.8 -3.4 9% 31 75.57 0.0
05 17:35 NW 22 G 31 16.09 Fair CLR 34.7 -2.4 9% 32 75.59 0.0
05 17:15 W 9 G 28 16.09 Fair CLR 34 -2.6 9% 31 75.59 0.0
05 16:55 S 11 G 35 16.09 Fair CLR 34.1 -1.5 10% 32 75.62 0.0
05 16:35 SE 7 G 30 16.09 Fair CLR 33.4 -1 11% 31 75.67 0.0
05 16:15 W 9 16.09 Fair CLR 33.1 0 12% 31 75.72 0.0
05 15:55 NW 6 16.09 Fair CLR 32.5 0 12% 30 75.74 0.0
05 15:35 N 11 16.09 Fair CLR 31.8 0.4 13% 30 75.77 0.0
05 15:15 NW 19 G 28 16.09 Fair CLR 32.3 0.4 13% 30 75.79 0.0
05 14:55 SW 15 16.09 Fair CLR 32 0.5 13% 30 75.79 0.0
05 14:35 Calm 16.09 Fair CLR 31.3 0.7 14% 29 75.84 0.0
05 14:15 SW 6 16.09 Fair CLR 30.7 0.9 15% 29 75.87 0.0
05 13:55 W 9 16.09 Fair CLR 29.8 0.5 15% 28 75.87 0.0
05 13:35 W 17 G 26 16.09 Fair CLR 31.1 0.8 14% 29 75.9 0.0
05 13:15 Calm 16.09 Fair CLR 29.6 0.9 16% 28 75.92 0.0
05 12:55 W 13 16.09 Fair CLR 30.2 1.1 30.2 18.4 15% 28 75.95 0.0
05 12:35 W 13 16.09 Fair CLR 29.1 1.3 17% 27 75.95 0.0
05 12:15 NW 13 G 31 16.09 Fair CLR 29.3 1.2 16% 28 75.97 0.0
05 11:55 W 11 G 31 16.09 Fair CLR 29.4 1.2 16% 28 75.95 0.0
05 11:35 W 22 G 31 16.09 Fair CLR 29 1.1 16% 27 75.97 0.0
05 11:15 W 26 G 31 16.09 Fair CLR 28.9 1.2 17% 27 75.97 0.0
05 10:55 W 24 G 31 16.09 Fair CLR 28.3 1.1 17% 27 75.97 0.0
05 10:35 W 26 G 39 16.09 Fair CLR 28.5 1 17% 27 75.97 0.0
05 10:15 W 19 G 26 16.09 Fair CLR 27.6 1.5 18% 26 75.97 0.0
05 09:55 W 7 16.09 Fair CLR 26.2 1.6 20% 26 75.95 0.0
05 09:35 W 7 16.09 Fair CLR 24.9 1.5 22% 25 75.95 0.0
05 09:15 Calm 16.09 Fair CLR 24.1 1.7 23% 25 75.95 0.0
05 08:55 Calm 16.09 Fair CLR 23.6 1.2 23% 75.9 0.0
05 08:35 Calm 16.09 Fair CLR 23 1 23% 75.9 0.0
05 08:15 N 6 16.09 Fair CLR 20.6 0.7 27% 75.87 0.0
05 07:55 N 6 16.09 Fair CLR 19.6 0.5 28% 75.84 0.0
05 07:35 Calm 16.09 Fair CLR 20.7 0.7 26% 75.84 0.0
05 07:15 Calm 16.09 Fair CLR 19 1.3 31% 75.82 0.0
05 06:55 Calm 16.09 Fair CLR 19.5 1.4 25.8 19.3 30% 75.82 0.0
05 06:35 E 6 16.09 Fair CLR 20.2 1.6 29% 75.79 0.0
05 06:15 SE 6 16.09 Fair CLR 20.2 1.6 29% 75.79 0.0
05 05:55 E 6 16.09 Fair CLR 20.6 1 27% 75.79 0.0
05 05:35 Calm 16.09 Fair CLR 20.1 0.6 27% 75.77 0.0
05 05:15 N 7 16.09 Fair CLR 21.1 0.5 25% 75.74 0.0
05 04:55 N 6 16.09 Fair CLR 20.6 0.5 26% 75.74 0.0
05 04:35 N 9 16.09 Fair CLR 21.4 0.6 25% 75.74 0.0
05 04:15 N 9 16.09 Fair CLR 21.6 0.7 25% 75.77 0.0
05 03:55 N 11 16.09 Fair CLR 21.6 0.9 25% 75.74 0.0
05 03:35 NW 6 16.09 Fair CLR 21.9 1 25% 75.77 0.0
05 03:15 Calm 16.09 Fair CLR 21.5 1.5 27% 75.77 0.0
05 02:55 Calm 16.09 Fair CLR 22.5 1.5 25% 75.77 0.0
05 02:35 Calm 16.09 Fair CLR 24 1.1 22% 25 75.79 0.0
05 02:15 W 9 16.09 Fair CLR 23.1 1.6 24% 75.79 0.0
05 01:55 SE 9 16.09 Fair CLR 24 1.6 23% 25 75.79 0.0
05 01:35 SE 9 16.09 Fair CLR 25 0.7 20% 25 75.79 0.0
05 01:15 N 11 16.09 Fair CLR 25.5 0.4 19% 25 75.77 0.0
05 00:55 N 11 16.09 Fair CLR 25.5 0.5 33.6 25.5 19% 25 75.79 0.0
05 00:35 N 11 16.09 Fair CLR 26.1 0.5 19% 26 75.79 0.0
05 00:15 N 15 16.09 Fair CLR 26.3 0.5 19% 26 75.82 0.0
04 23:55 N 15 16.09 Fair CLR 26.8 0.3 18% 26 75.79 0.0
04 23:35 N 13 16.09 Fair CLR 27.5 0.4 17% 26 75.79 0.0
04 23:15 N 13 16.09 Fair CLR 27.9 0.2 16% 27 75.79 0.0
04 22:55 N 15 16.09 Fair CLR 28.2 0 16% 27 75.79 0.0
04 22:35 N 11 16.09 Fair CLR 28.3 0.1 16% 27 75.77 0.0
04 22:15 N 13 16.09 Fair CLR 28.8 0.5 16% 27 75.74 0.0
04 21:55 N 13 16.09 Fair CLR 28.6 2.6 19% 27 75.74 0.0
04 21:35 Calm 16.09 Fair CLR 29.9 3.6 19% 28 75.72 0.0
04 21:15 Calm 16.09 Fair CLR 31.2 3.5 17% 29 75.72 0.0
04 20:55 Calm 16.09 Fair CLR 31.7 3.5 17% 30 75.72 0.0
04 20:35 SW 6 16.09 Fair CLR 32.3 3.1 16% 30 75.69 0.0
04 20:15 Calm 16.09 Fair CLR 32.7 3.4 16% 30 75.69 0.0
04 19:55 S 6 16.09 Fair CLR 33.1 3.6 15% 31 75.69 0.0
04 19:35 S 9 16.09 Fair CLR 33.1 3.9 16% 31 75.72 0.0
04 19:15 S 9 16.09 Fair CLR 33.3 4.1 16% 31 75.72 0.0
04 18:55 S 15 16.09 Fair CLR 33.6 4.4 34.4 29.4 16% 31 75.74 0.0
04 18:35 Calm 16.09 Fair CLR 33.8 4.8 16% 31 75.74 0.0
04 18:15 E 6 16.09 Fair CLR 33.3 5.1 17% 31 75.74 0.0
04 17:55 SW 7 16.09 Fair CLR 33.6 4.7 16% 31 75.77 0.0
04 17:35 SW 11 16.09 Fair CLR 34 5.7 17% 32 75.77 0.0
04 17:15 SW 6 16.09 Fair CLR 33.9 5.7 17% 32 75.79 0.0
04 16:55 S 7 16.09 Fair CLR 33.3 6.1 18% 31 75.79 0.0
04 16:35 Calm 16.09 Fair CLR 33.1 4.9 17% 31 75.82 0.0
04 16:15 NW 13 G 26 16.09 Fair CLR 33.8 4.9 16% 31 75.84 0.0
04 15:55 S 6 16.09 Fair CLR 33 5 17% 31 75.87 0.0
04 15:35 NW 11 16.09 Fair CLR 33 4.5 17% 31 75.9 0.0
04 15:15 Calm 16.09 Fair CLR 32.6 5.6 18% 30 75.9 0.0
04 14:55 SW 11 16.09 Fair CLR 32.5 4.8 17% 30 75.92 0.0
04 14:35 S 9 16.09 Fair CLR 32.1 5.5 19% 30 75.95 0.0
04 14:15 W 13 16.09 Fair CLR 31.8 4.6 18% 30 76 0.0
04 13:55 SW 11 16.09 Fair CLR 31.2 6.6 21% 29 76.02 0.0
04 13:35 E 6 16.09 Fair CLR 30.4 7.1 23% 29 76.02 0.0
04 13:15 W 13 16.09 Fair CLR 30.3 7.1 23% 29 76.07 0.0
04 12:55 S 7 16.09 Fair CLR 29.5 7.8 29.5 19.1 26% 28 76.07 0.0
04 12:35 S 9 16.09 Fair CLR 29.3 8.3 27% 28 76.1 0.0
04 12:15 S 6 16.09 Fair CLR 28.5 8.2 28% 27 76.1 0.0
04 11:55 Calm 16.09 Fair CLR 27.8 8.6 30% 27 76.1 0.0
04 11:35 S 6 16.09 Fair CLR 27.4 8.7 31% 27 76.12 0.0
04 11:15 S 7 16.09 Fair CLR 26.4 8.8 33% 26 76.12 0.0
04 10:55 Calm 16.09 Fair CLR 25.7 8.7 34% 26 76.12 0.0
04 10:35 Calm 16.09 Fair CLR 25.8 8.9 34% 26 76.12 0.0
04 10:15 Calm 16.09 Fair CLR 24.9 9 37% 26 76.12 0.0
04 09:55 Calm 16.09 Fair CLR 24.4 9 38% 25 76.1 0.0
04 09:35 N 6 16.09 Fair CLR 23.7 9 39% 76.1 0.0
04 09:15 N 9 16.09 Fair CLR 22.4 9 43% 76.1 0.0
04 08:55 Calm 16.09 Fair CLR 22 9 44% 76.1 0.0
04 08:35 Calm 16.09 Fair CLR 21.5 9.1 45% 76.05 0.0
04 08:15 Calm 16.09 Fair CLR 20.3 9 48% 76.05 0.0
04 07:55 N 7 16.09 Fair CLR 19.5 8.8 50% 76.05 0.0
04 07:35 NE 7 16.09 Fair CLR 19.4 8.8 50% 76.02 0.0
04 07:15 NE 7 16.09 Fair CLR 19.1 8.7 51% 76.02 0.0
04 06:55 Calm 16.09 Fair CLR 19.5 8.7 23.8 19.5 50% 76.02 0.0
04 06:35 NE 6 16.09 Fair CLR 20 8.5 48% 76 0.0
04 06:15 NE 7 16.09 Fair CLR 19.9 8.6 48% 76 0.0
04 05:55 N 7 16.09 Fair CLR 20 8.5 48% 76 0.0
04 05:35 N 9 16.09 Fair CLR 20.6 8.5 46% 76 0.0
04 05:15 N 13 16.09 Fair CLR 20.7 8.5 46% 76 0.0
04 04:55 NE 11 16.09 Fair CLR 21 8.5 45% 76 0.0
04 04:15 N 11 16.09 Fair CLR 21.1 8.5 45% 76.02 0.0
04 03:55 N 13 16.09 Fair CLR 21.5 8.5 43% 76.02 0.0
04 03:35 N 13 16.09 Fair CLR 21.6 8.5 43% 76.05 0.0
04 03:15 N 15 16.09 Fair CLR 22 8.3 42% 76.05 0.0
04 02:55 N 17 16.09 Fair CLR 22.1 8 40% 76.05 0.0
04 02:35 N 17 16.09 Fair CLR 22.5 8 39% 76.07 0.0
04 02:15 N 13 16.09 Fair CLR 22.8 8 39% 76.1 0.0
04 01:55 N 20 16.09 Fair CLR 23 8 38% 76.1 0.0
04 01:35 N 15 16.09 Fair CLR 23.3 8 38% 76.1 0.0
04 01:15 NE 13 16.09 Fair CLR 23.6 8 37% 76.1 0.0
04 00:55 NE 17 16.09 Fair CLR 23.8 7.9 29.2 23.8 36% 76.07 0.0
04 00:35 NE 17 16.09 Fair CLR 24.5 7.5 34% 25 76.07 0.0
04 00:15 NE 15 16.09 Fair CLR 24.9 7.3 33% 25 76.1 0.0
03 23:55 NE 17 16.09 Fair CLR 25.3 7.3 32% 26 76.12 0.0
03 23:35 NE 20 16.09 Fair CLR 25.7 7.1 31% 26 76.12 0.0
03 23:15 NE 19 G 28 16.09 Fair CLR 26.4 6.7 29% 26 76.15 0.0
03 22:55 E 19 16.09 Fair CLR 26.7 6.8 28% 26 76.15 0.0
03 22:35 NE 15 16.09 Partly Cloudy SCT120 27.2 6.8 27% 26 76.12 0.0
03 22:15 NE 11 16.09 Mostly Cloudy BKN110 27.3 7.1 28% 27 76.15 0.0
03 21:55 Calm 16.09 Overcast BKN100 OVC120 27.7 6.9 27% 27 76.17 0.0
03 21:35 E 7 16.09 Mostly Cloudy SCT100 BKN120 28 6.5 26% 27 76.15 0.0
03 21:15 NE 11 16.09 Fair CLR 28 6.6 26% 27 76.12 0.0
03 20:55 NE 15 16.09 Fair CLR 28.2 6.6 25% 27 76.05 0.0
03 20:35 NE 15 16.09 Fair CLR 28.5 6.8 25% 27 76.02 0.0
03 20:15 E 13 16.09 Fair CLR 28.7 7.1 26% 27 76.02 0.0
03 19:55 NE 13 16.09 Fair CLR 29 7.1 25% 28 76.05 0.0
03 19:35 E 11 16.09 Fair CLR 29 7.1 25% 28 76.05 0.0
03 19:15 Calm 16.09 Fair CLR 29 7.1 25% 28 76.07 0.0
03 18:55 E 11 16.09 Fair CLR 29.2 7.1 29.9 24.1 25% 28 76.07 0.0
03 18:35 SE 6 16.09 Fair CLR 29.4 7.3 25% 28 76.07 0.0
03 18:15 Calm 16.09 Fair CLR 28.7 7.1 26% 27 76.1 0.0
03 17:55 NE 13 16.09 Fair CLR 29.6 7.3 25% 28 76.1 0.0
03 17:35 SE 7 16.09 Fair CLR 29.3 7.2 25% 28 76.12 0.0
03 17:15 E 6 16.09 Fair CLR 29.3 7.1 25% 28 76.15 0.0
03 16:55 N 7 16.09 Fair CLR 29.2 7.2 25% 28 76.15 0.0
03 16:35 Calm 16.09 Fair CLR 28.5 7.1 26% 27 76.2 0.0
03 16:15 E 7 16.09 Fair CLR 28.7 7.1 26% 27 76.2 0.0
03 15:55 S 6 16.09 Fair CLR 28 7.3 27% 27 76.25 0.0
03 15:35 SW 9 16.09 Fair CLR 27.7 7.3 28% 27 76.3 0.0
03 15:15 S 11 16.09 Fair CLR 27.9 7.4 27% 27 76.33 0.0
03 14:55 Calm 16.09 Fair CLR 26.5 7.1 29% 26 76.35 0.0
03 14:35 NE 6 16.09 Fair CLR 26.6 7.4 30% 26 76.38 0.0
03 14:15 Calm 16.09 Fair CLR 26.2 7.2 30% 26 76.43 0.0
03 13:35 Calm 16.09 Fair CLR 25 7.2 32% 25 76.5 0.0
03 13:15 Calm 16.09 Fair CLR 24.4 7 33% 25 76.56 0.0
03 12:55 SE 6 16.09 Fair CLR 24.1 7.1 24.3 16.5 34% 25 76.58 0.0
03 12:35 E 9 16.09 Fair CLR 23.8 7.3 35% 76.58 0.0
03 12:15 NE 11 16.09 Fair CLR 23.4 7.3 36% 76.61 0.0
03 11:55 E 9 16.09 Fair CLR 23.1 7.4 37% 76.63 0.0
03 11:35 Calm 16.09 Fair CLR 21.8 7.3 39% 76.66 0.0
03 11:15 E 7 16.09 Partly Cloudy SCT095 21.5 7.5 41% 76.68 0.0
03 10:55 E 13 16.09 Fair CLR 20.9 7.6 42% 76.71 0.0
03 10:35 SE 11 16.09 Partly Cloudy SCT100 SCT120 20.6 7.6 43% 76.71 0.0
03 10:15 E 11 16.09 Partly Cloudy SCT100 20.2 7.6 44% 76.73 0.0
03 09:55 E 11 16.09 Partly Cloudy BKN100 SCT120 20 7.5 45% 76.73 0.0
03 09:35 NE 17 16.09 Mostly Cloudy BKN100 BKN120 19.5 7.5 46% 76.71 0.0
03 09:15 NE 15 16.09 Mostly Cloudy BKN100 BKN120 19.4 7.5 46% 76.68 0.0
03 08:55 NE 17 16.09 Fair CLR 19 7.5 47% 76.66 0.0
03 08:35 NE 17 16.09 Partly Cloudy SCT100 18.3 7.4 49% 76.66 0.0
03 08:15 NE 15 16.09 Mostly Cloudy BKN100 17.5 7.2 51% 76.66 0.0
03 07:35 NE 15 16.09 Mostly Cloudy BKN100 BKN120 16.8 7 53% 76.61 0.0
03 07:15 NE 15 16.09 Mostly Cloudy BKN100 16.6 7 53% 76.61 0.0
03 06:55 NE 15 16.09 Partly Cloudy SCT110 16.5 7 18.5 16.5 54% 76.58 0.0
03 06:35 NE 15 16.09 Mostly Cloudy BKN110 16.7 6.8 52% 76.58 0.0
03 06:15 NE 13 16.09 Mostly Cloudy BKN110 16.7 6.7 52% 76.58 0.0
03 05:55 NE 19 16.09 Mostly Cloudy BKN120 17 6.7 51% 76.56 0.0
03 05:35 NE 15 16.09 Mostly Cloudy BKN110 17.1 6.7 51% 76.58 0.0
03 05:15 NE 15 16.09 Mostly Cloudy BKN110 17.3 6.6 50% 76.58 0.0
03 04:55 NE 15 16.09 Mostly Cloudy BKN110 17.5 6.6 49% 76.58 0.0
03 04:35 NE 15 16.09 Partly Cloudy SCT120 17.5 6.5 49% 76.58 0.0
03 04:15 NE 17 G 30 16.09 Partly Cloudy SCT120 17.5 6.5 49% 76.58 0.0
03 03:55 NE 20 16.09 Partly Cloudy SCT110 17.5 6.3 48% 76.58 0.0
03 03:35 NE 19 16.09 Mostly Cloudy BKN110 17.5 6.1 47% 76.61 0.0
Date Time (cdt) Wind (kph) Vis. (km) Weather Sky Cond. Air Dwpt Max. Min. Relative Humidity Wind Chill (°C) Heat Index (°C) altimeter (cm) sea level (mb) 1 hr 3 hr 6 hr
6 hour
Temperature (ºC) Pressure Precipitation (cm)